Lincolndale, New York
Current Conditions -  °F | °C
As of 3:53 PM on Tuesday 25 Nov 2014 (Local Time) from KDXR Reporting Station
Clear Clear  
Wind Chill: 50°   Ceiling: Unl
Heat Index: 50°   Visibility: 10mi
Dew Point: 27°   Wind: 6mph
Humidity: 41%   Direction: 230°SW
Pressure: 29.99"   Gusts: NA
Location:  41.32°N, 73.72°W
Report Text: KDXR 252053Z 23005KT 10SM CLR 10/M03 A2999 RMK AO2 SLP155 T01001028 53006
Loading
Personal Weather Stations






























Interactive Weather Map New forecast layout! Learn more

10-Day Weather Forecast

Advertisements
Track Severe Weather on mobile